Latest Weather Observations for Darwin Airport

IDD60801

Issued at 12:35 pm CST Thursday 23 October 2014 (issued every 30 minutes, with the page automatically refreshed every 10 minutes)

About weather observations | Map of weather stations | Latest weather observations for NT | Other Formats
Station Details ID: 014015 Name: DARWIN AIRPORT Lat: -12.42 Lon: 130.89 Height: 30.4 m
Data from the previous 72 hours. | See also: Recent months at Darwin Airport
Date/Time
CST
Temp
°C
App
Temp
°C
Dew
Point
Rel
Hum
%
Delta-T
°C
Wind Press
QNH
hPa
Press
MSL
hPa
Rain
since 9 am
mm
Dir
 
Spd
km/h
Gust
km/h
Spd
kts
Gust
kts
23/12:30pm 34.0 30.9 12.2 26 13.0 N 20 32 11 17 1012.2 - 0.0
23/12:00pm 34.2 33.2 14.6 30 12.1 NE 13 24 7 13 1012.8 1012.5 0.0
23/11:30am 33.3 30.1 13.0 29 12.2 E 22 35 12 19 1013.3 - 0.0
23/11:00am 32.4 31.2 15.1 35 10.7 NE 15 28 8 15 1013.7 - 0.0
23/10:30am 32.2 31.0 13.9 33 11.1 ENE 13 28 7 15 1014.2 - 0.0
23/10:00am 31.0 30.5 18.6 47 8.0 NE 19 28 10 15 1014.6 - 0.0
23/09:30am 29.9 30.2 19.7 54 6.7 NE 17 22 9 12 1014.8 - 0.0
23/09:00am 29.0 29.3 20.4 59 5.7 ENE 19 26 10 14 1014.9 1014.6 0.0
23/08:30am 28.5 30.0 20.6 62 5.2 NE 13 20 7 11 1014.9 - 0.0
23/08:00am 27.9 29.2 20.8 65 4.7 ENE 15 19 8 10 1014.7 - 0.0
23/07:30am 26.9 29.4 21.8 73 3.4 E 11 15 6 8 1014.4 - 0.0
23/07:00am 25.5 28.2 22.2 82 2.2 E 11 11 6 6 1014.0 - 0.0
23/06:30am 24.2 27.4 22.4 90 1.2 ENE 9 11 5 6 1013.7 - 0.0
23/06:00am 24.0 27.2 22.4 91 1.1 NE 9 11 5 6 1013.4 1013.1 0.0
23/05:30am 24.6 28.2 22.4 87 1.5 NNE 7 11 4 6 1013.0 - 0.0
23/05:00am 25.0 28.6 22.3 85 1.8 N 7 9 4 5 1012.6 - 0.0
23/04:30am 25.6 29.2 22.3 82 2.2 N 7 9 4 5 1012.6 - 0.0
23/04:00am 26.0 29.2 22.4 80 2.4 NNE 9 11 5 6 1012.7 - 0.0
23/03:30am 26.2 29.2 22.0 77 2.8 NNE 9 11 5 6 1012.9 - 0.0
23/03:00am 26.3 29.8 22.1 77 2.8 NNE 7 11 4 6 1012.8 1012.5 0.0
23/02:30am 26.5 29.0 21.7 75 3.2 N 11 13 6 7 1012.8 - 0.0
23/02:00am 26.6 29.6 22.0 76 3.1 NE 9 13 5 7 1013.2 - 0.0
23/01:30am 26.5 29.7 23.1 81 2.3 N 11 15 6 8 1013.1 - 0.0
23/01:00am 26.5 30.3 23.4 83 2.1 NNW 9 15 5 8 1013.6 - 0.0
23/12:30am 26.5 28.7 23.3 82 2.2 N 17 20 9 11 1013.7 - 0.0
23/12:00am 28.0 29.7 22.4 71 3.8 N 17 20 9 11 1014.1 1013.8 0.0
 
Date/Time
CST
Temp
°C
App
Temp
°C
Dew
Point
Rel
Hum
%
Delta-T
°C
Wind Press
QNH
hPa
Press
MSL
hPa
Rain
since 9 am
mm
Dir
 
Spd
km/h
Gust
km/h
Spd
kts
Gust
kts
22/11:30pm 28.4 30.1 22.3 69 4.1 WNW 17 20 9 11 1014.0 - 0.0
22/11:00pm 28.5 29.1 22.1 68 4.3 WNW 22 28 12 15 1014.0 - 0.0
22/10:30pm 28.6 29.0 21.8 66 4.6 NW 22 28 12 15 1014.0 - 0.0
22/10:00pm 28.7 28.5 22.0 67 4.5 NW 26 33 14 18 1013.5 - 0.0
22/09:30pm 28.8 28.7 22.3 68 4.4 NW 26 32 14 17 1013.1 - 0.0
22/09:00pm 29.7 30.4 22.3 64 5.0 WNW 22 30 12 16 1012.5 1012.2 0.0
22/08:30pm 28.7 30.5 20.4 60 5.5 NNE 11 15 6 8 1012.1 - 0.0
22/08:00pm 29.0 30.9 19.7 57 6.1 NNE 9 11 5 6 1011.7 - 0.0
22/07:30pm 29.6 31.3 19.3 54 6.7 N 9 11 5 6 1011.4 - 0.0
22/07:00pm 30.2 31.2 18.6 49 7.5 N 11 13 6 7 1011.1 - 0.0
22/06:30pm 30.7 30.8 18.3 47 8.0 N 15 17 8 9 1010.8 - 0.0
22/06:00pm 30.9 31.0 19.1 49 7.7 N 17 22 9 12 1010.4 1010.1 0.0
22/05:30pm 31.7 31.0 18.6 45 8.5 N 20 32 11 17 1010.1 - 0.0
22/05:00pm 32.2 31.5 18.7 44 8.8 N 20 26 11 14 1009.9 - 0.0
22/04:30pm 32.3 30.8 18.6 44 8.9 N 24 28 13 15 1009.9 - 0.0
22/04:00pm 32.0 30.8 20.1 49 7.9 N 26 30 14 16 1009.9 - 0.0
22/03:30pm 32.4 31.9 20.8 50 7.8 N 24 30 13 16 1010.3 - 0.0
22/03:00pm 32.3 31.4 20.6 50 7.8 N 26 33 14 18 1010.7 1010.4 0.0
22/02:30pm 31.4 31.0 21.0 54 7.0 N 24 33 13 18 1011.1 - 0.0
22/02:00pm 31.6 31.8 21.4 54 6.9 N 22 32 12 17 1011.6 - 0.0
22/01:30pm 31.8 32.0 21.4 54 7.0 NNW 22 30 12 16 1012.2 - 0.0
22/01:00pm 31.7 31.8 21.1 53 7.1 N 22 28 12 15 1012.9 - 0.0
22/12:30pm 31.5 32.0 21.1 54 7.0 NW 20 28 11 15 1013.5 - 0.0
22/12:00pm 30.7 31.6 21.5 58 6.2 NNW 19 26 10 14 1013.9 1013.6 0.0
22/11:30am 30.9 30.9 21.0 55 6.6 NNW 22 28 12 15 1014.4 - 0.0
22/11:00am 31.6 30.3 18.1 44 8.7 ESE 22 28 12 15 1014.8 - 0.0
22/10:30am 30.8 31.0 18.6 48 7.9 E 15 19 8 10 1015.2 - 0.0
22/10:00am 30.0 32.5 20.3 56 6.4 NE 7 11 4 6 1015.2 - 0.0
22/09:30am 30.4 31.8 21.0 57 6.3 NW 15 19 8 10 1015.1 - 0.0
22/09:00am 29.2 32.0 20.9 61 5.5 NNW 7 17 4 9 1015.1 1014.8 0.0
22/08:30am 28.4 30.7 21.4 66 4.7 N 11 15 6 8 1015.1 - 0.0
22/08:00am 27.9 30.3 21.6 68 4.2 N 11 15 6 8 1014.6 - 0.0
22/07:30am 26.6 29.8 22.3 77 2.9 N 9 11 5 6 1014.4 - 0.0
22/07:00am 24.7 28.4 22.5 87 1.5 N 7 9 4 5 1014.0 - 0.0
22/06:30am 24.0 27.7 22.2 90 1.2 N 6 11 3 6 1014.0 - 0.0
22/06:00am 24.5 27.3 22.3 87 1.5 N 11 11 6 6 1013.6 1013.3 0.0
22/05:30am 24.7 27.1 22.2 86 1.7 NNE 13 15 7 8 1013.7 - 0.0
22/05:00am 24.9 27.5 21.9 83 2.0 NNE 11 13 6 7 1013.5 - 0.0
22/04:30am 24.9 26.7 21.9 83 2.0 NE 15 17 8 9 1013.6 - 0.0
22/04:00am 24.9 27.1 21.9 83 2.0 NE 13 15 7 8 1013.6 - 0.0
22/03:30am 25.1 27.9 21.6 81 2.3 NNE 9 11 5 6 1013.1 - 0.0
22/03:00am 25.9 28.8 21.7 77 2.8 N 9 11 5 6 1013.0 1012.7 0.0
22/02:30am 26.0 28.4 21.6 76 2.9 N 11 13 6 7 1013.2 - 0.0
22/02:00am 26.2 27.8 21.4 75 3.2 N 15 19 8 10 1013.6 - 0.0
22/01:30am 26.5 28.2 20.9 71 3.7 N 13 17 7 9 1013.9 - 0.0
22/01:00am 26.8 28.0 20.7 69 4.0 N 15 20 8 11 1014.2 - 0.0
22/12:30am 27.1 27.6 20.9 69 4.1 N 19 22 10 12 1014.6 - 0.0
22/12:00am 27.3 28.7 21.8 72 3.7 N 17 22 9 12 1014.9 1014.6 0.0
 
Date/Time
CST
Temp
°C
App
Temp
°C
Dew
Point
Rel
Hum
%
Delta-T
°C
Wind Press
QNH
hPa
Press
MSL
hPa
Rain
since 9 am
mm
Dir
 
Spd
km/h
Gust
km/h
Spd
kts
Gust
kts
21/11:30pm 27.6 28.0 22.4 73 3.5 N 24 28 13 15 1015.0 - 0.0
21/11:00pm 28.5 29.2 22.3 69 4.2 NNW 22 32 12 17 1015.0 - 0.0
21/10:30pm 28.5 29.1 22.8 71 3.9 NW 24 30 13 16 1014.9 - 0.0
21/10:00pm 27.1 27.2 19.2 62 5.1 NNW 17 28 9 15 1014.5 - 0.0
21/09:30pm 27.6 29.1 18.0 55 6.1 NNE 7 9 4 5 1014.2 - 0.0
21/09:00pm 26.6 28.1 18.8 62 5.0 E 9 11 5 6 1013.5 1013.2 0.0
21/08:30pm 27.8 30.9 18.6 57 5.9 CALM 0 0 0 0 1013.1 - 0.0
21/08:00pm 29.1 31.2 19.3 55 6.4 NW 7 9 4 5 1012.5 - 0.0
21/07:30pm 29.8 30.4 16.9 45 8.1 W 9 11 5 6 1012.4 - 0.0
21/07:00pm 30.6 30.4 15.6 40 9.3 NNW 11 11 6 6 1012.0 - 0.0
21/06:30pm 30.9 30.5 15.2 38 9.7 NNW 11 13 6 7 1011.6 - 0.0
21/06:00pm 31.5 30.8 15.3 37 10.0 N 13 19 7 10 1011.4 1011.1 0.0
21/05:30pm 31.7 30.0 14.6 35 10.5 N 17 24 9 13 1011.0 - 0.0
21/05:00pm 31.8 29.2 15.8 38 10.0 NNE 24 32 13 17 1010.7 - 0.0
21/04:30pm 32.1 29.6 17.2 41 9.5 N 26 32 14 17 1010.6 - 0.0
21/04:00pm 32.0 29.6 17.3 41 9.4 N 26 33 14 18 1010.8 - 0.0
21/03:30pm 32.7 31.0 18.2 42 9.4 N 24 30 13 16 1011.1 - 0.0
21/03:00pm 32.7 30.7 18.4 42 9.3 NNW 26 32 14 17 1011.4 1011.1 0.0
21/02:30pm 32.1 30.5 19.3 46 8.4 NNW 26 32 14 17 1011.6 - 0.0
21/02:00pm 32.2 30.2 18.3 43 9.0 N 26 35 14 19 1012.2 - 0.0
21/01:30pm 32.6 30.3 16.6 38 10.1 NNW 24 32 13 17 1012.9 - 0.0
21/01:00pm 32.7 30.8 17.6 40 9.7 NNW 24 30 13 16 1013.4 - 0.0
21/12:30pm 32.2 31.6 19.8 48 8.2 NW 22 28 12 15 1014.2 - 0.0
21/12:00pm 33.0 31.4 12.8 29 12.1 ENE 13 20 7 11 1014.8 1014.5 0.0
21/11:30am 33.1 31.1 15.0 33 11.2 E 19 26 10 14 1015.2 - 0.0
21/11:00am 32.4 30.4 15.5 36 10.5 ENE 20 28 11 15 1015.6 - 0.0
21/10:30am 31.5 30.0 17.8 44 8.8 ENE 22 33 12 18 1016.1 - 0.0
21/10:00am 30.6 30.2 19.3 51 7.4 E 20 30 11 16 1016.4 - 0.0
21/09:30am 29.6 29.6 20.2 57 6.2 ENE 20 28 11 15 1016.5 - 0.0
21/09:00am 29.4 29.7 20.3 58 6.0 ENE 19 24 10 13 1016.0 1015.7 0.0
21/08:30am 28.9 30.1 21.4 64 5.0 NE 17 19 9 10 1015.6 - 0.0
21/08:00am 27.7 30.4 22.2 72 3.7 NE 11 15 6 8 1015.4 - 0.0
21/07:30am 26.6 30.0 22.0 76 3.1 ENE 7 11 4 6 1015.1 - 0.0
21/07:00am 25.0 28.4 22.0 83 2.0 E 7 9 4 5 1014.8 - 0.0
21/06:30am 24.1 27.0 21.8 87 1.5 E 9 9 5 5 1014.6 - 0.0
21/06:00am 23.9 26.7 21.5 86 1.6 ENE 9 11 5 6 1014.2 1013.9 0.0
21/05:30am 24.3 27.1 21.6 85 1.8 ENE 9 9 5 5 1014.0 - 0.0
21/05:00am 24.4 27.2 21.5 84 1.9 NE 9 11 5 6 1013.9 - 0.0
21/04:30am 24.5 26.9 21.6 84 1.9 ENE 11 13 6 7 1013.8 - 0.0
21/04:00am 24.6 27.7 22.1 86 1.7 ENE 9 13 5 7 1013.8 - 0.0
21/03:30am 24.8 27.4 22.0 84 1.9 ENE 11 13 6 7 1013.6 - 0.0
21/03:00am 25.2 28.4 22.4 84 1.9 ENE 9 9 5 5 1013.6 1013.3 0.0
21/02:30am 25.6 27.9 22.0 80 2.4 NE 13 15 7 8 1013.7 - 0.0
21/02:00am 25.7 29.2 22.1 80 2.4 NNE 7 11 4 6 1014.1 - 0.0
21/01:30am 26.6 29.8 22.4 78 2.8 NNW 9 13 5 7 1014.0 - 0.0
21/01:00am 27.3 30.0 22.1 73 3.5 NNW 11 15 6 8 1014.2 - 0.0
21/12:30am 27.8 29.8 22.2 71 3.8 NNW 15 19 8 10 1014.3 - 0.0
21/12:00am 28.0 29.2 22.2 70 3.9 NNW 19 26 10 14 1014.4 1014.1 0.0
 
Date/Time
CST
Temp
°C
App
Temp
°C
Dew
Point
Rel
Hum
%
Delta-T
°C
Wind Press
QNH
hPa
Press
MSL
hPa
Rain
since 9 am
mm
Dir
 
Spd
km/h
Gust
km/h
Spd
kts
Gust
kts
20/11:30pm 28.1 28.4 22.3 70 3.9 NNW 24 32 13 17 1014.4 - 0.0
20/11:00pm 28.1 28.3 22.8 73 3.6 NNW 26 35 14 19 1014.2 - 0.0
20/10:30pm 27.2 28.8 20.8 68 4.2 NNE 13 17 7 9 1013.9 - 0.0
20/10:00pm 26.9 27.7 19.8 65 4.6 NE 15 19 8 10 1013.7 - 0.0
20/09:30pm 26.8 27.1 18.0 58 5.6 ENE 13 15 7 8 1013.4 - 0.0
20/09:00pm 26.0 27.8 19.5 67 4.2 ENE 9 11 5 6 1013.1 1012.8 0.0
20/08:30pm 27.2 28.7 19.0 61 5.3 NNE 9 11 5 6 1012.7 - 0.0
20/08:00pm 27.9 29.6 19.4 60 5.5 N 9 11 5 6 1012.2 - 0.0
20/07:30pm 29.3 30.5 18.2 51 7.1 N 9 9 5 5 1011.7 - 0.0
20/07:00pm 30.0 30.3 17.0 45 8.2 N 11 13 6 7 1011.2 - 0.0
20/06:30pm 30.6 30.0 15.6 40 9.3 NNW 13 17 7 9 1010.9 - 0.0
20/06:00pm 31.6 30.0 14.9 36 10.3 NNW 17 20 9 11 1010.5 1010.2 0.0
20/05:30pm 31.6 29.0 13.8 34 10.8 N 20 28 11 15 1010.0 - 0.0
20/05:00pm 32.0 28.6 14.8 35 10.6 N 26 32 14 17 1009.6 - 0.0
20/04:30pm 32.5 28.8 15.9 36 10.4 N 30 35 16 19 1009.5 - 0.0
20/04:00pm 32.3 29.7 16.9 39 9.8 NNE 26 33 14 18 1009.6 - 0.0
20/03:30pm 32.3 29.8 18.1 42 9.2 N 28 33 15 18 1009.9 - 0.0
20/03:00pm 32.0 31.2 20.1 49 7.9 N 24 33 13 18 1010.2 1009.9 0.0
20/02:30pm 31.0 30.5 20.7 54 6.9 N 24 30 13 16 1010.5 - 0.0
20/02:00pm 31.5 30.6 20.7 52 7.2 NNW 26 35 14 19 1010.9 - 0.0
20/01:30pm 31.7 30.0 19.9 49 7.8 NNW 28 33 15 18 1011.8 - 0.0
20/01:00pm 32.3 31.4 19.9 48 8.2 NW 24 30 13 16 1012.2 - 0.0

Other Formats:

Comma delimited format used in spreadsheet applications
http://www.bom.gov.au/fwo/IDD60801/IDD60801.94120.axf

JavaScript Object Notation format (JSON) in row-major order
http://www.bom.gov.au/fwo/IDD60801/IDD60801.94120.json